Kezdőlap
METAR-TAF:

METAR-TAF

Repülőterek :

Uljanovszk Vosztocsnij repülőtér

Uljanovszk, Oroszország

földrajzi szélesség: 54-21N, földrajzi hosszúság: 048-23E, magasság: 77 m

Jelenlegi meteorológiai megfigyelések

A jelentés 29 perccel ezelõtt készült, 02:00 UTC
Nyugat-északnyugati szél 4 kt
Hőmérséklet 5°C
Páratartalom 75%
Légköri nyomás 1018 hPa
Látótávolság: 8000 m

METAR: UWLW 250200Z 29002MPS 8000 NSC 05/01 Q1018 R02/CLRD60 NOSIG RMK QFE757

Idő: 05:29 (02:29 UTC)

Előrejelzés

A jelentés 3 órával és 44 perccel ezelõtt készült, 22:45 UTC
Az előrejelzés 25-én 00 óra UTC és 25-én 24 óra UTC között érvényes
Északnyugati szél 6 kt
Látótávolság: 8000 m
Szórványos felhőzet 3300 lábon
25-én 03 óra UTC és 25-én 16 óra UTC között ideiglenes
Északi szél 10 kt széllökések: 23 kt

TAF: UWLW 242245Z 2500/2524 31003MPS 8000 SCT033 TEMPO 2503/2516 35005G12MPS

Meteorológiai megfigyelések és előrejelzések több, mint 4000 repülőtéren (METAR és TAF jelentéseket).

A térképen piros és sárga pontok jelzik az elérhető meteorológiai állomásokat.

Mozgassa az egeret a pont fölött, hogy megjelenjen az állomás neve.

Azután kattintson az időjárási megfigyelések és előrejelzések megtekintéséhez.

A térkép megváltoztatása: kattintson a fekete keresztel jelölt zöld gombra ráközelítéshez, a vonallal jelölt zöld gombra távolításhoz, vagy a zöld nyilakra a szomszédos térképek eléréséhez.


METAR-TAF: